Time;durP1;ratioP1;P1;durP2;ratioP2;P2;SDS_P1;SDS_P2;PMS_P1;PMS_P2;Temp;Humidity;BMP_temperature;BMP_pressure;BME280_temperature;BME280_humidity;BME280_pressure;Samples;Min_cycle;Max_cycle;Signal;HPM_P1;HPM_P2
2022/02/08 00:01:21;;;;;;;10.80;6.30;;;;;;;1.49;88.31;98459.88;109214;1273;137957;-59
2022/02/08 00:03:49;;;;;;;12.00;6.50;;;;;;;1.48;88.43;98463.65;109341;1273;22550;-58
2022/02/08 00:08:57;;;;;;;11.30;5.80;;;;;;;1.45;88.44;98472.64;109294;1273;22442;-58
2022/02/08 00:11:25;;;;;;;8.80;4.70;;;;;;;1.45;88.18;98481.23;109267;1273;23292;-58
2022/02/08 00:13:53;;;;;;;15.60;4.80;;;;;;;1.45;88.15;98483.59;109193;1273;138100;-58
2022/02/08 00:16:21;;;;;;;7.50;4.50;;;;;;;1.43;88.12;98486.90;109354;1273;23372;-59
2022/02/08 00:18:49;;;;;;;6.50;3.50;;;;;;;1.42;88.11;98490.62;109195;1273;138299;-58
2022/02/08 00:21:17;;;;;;;6.30;3.90;;;;;;;1.39;87.83;98492.79;109319;1273;22457;-58
2022/02/08 00:23:45;;;;;;;4.60;3.10;;;;;;;1.37;87.55;98498.92;109342;1273;22466;-57
2022/02/08 00:26:15;;;;;;;6.70;3.50;;;;;;;1.34;87.42;98501.35;109147;1273;138157;-58
2022/02/08 00:28:42;;;;;;;4.50;3.40;;;;;;;1.31;87.32;98507.92;109308;1273;23151;-59
2022/02/08 00:31:12;;;;;;;6.20;3.40;;;;;;;1.27;87.14;98508.21;109232;1273;137958;-58
2022/02/08 00:33:40;;;;;;;4.00;2.80;;;;;;;1.26;87.22;98512.23;109274;1273;22502;-59
2022/02/08 00:36:08;;;;;;;5.00;2.80;;;;;;;1.24;87.09;98512.29;109169;1273;138802;-59
2022/02/08 00:38:37;;;;;;;5.50;2.90;;;;;;;1.24;87.16;98513.73;109274;1273;22515;-58
2022/02/08 00:41:06;;;;;;;4.20;2.40;;;;;;;1.23;87.17;98518.48;109259;1273;23297;-59
2022/02/08 00:44:39;;;;;;;5.10;2.80;;;;;;;1.23;86.90;98516.70;109181;1273;138389;-58
2022/02/08 00:46:40;;;;;;;4.00;2.50;;;;;;;1.21;86.69;98517.84;109119;1273;22543;-59
2022/02/08 00:49:10;;;;;;;4.20;2.60;;;;;;;1.21;86.66;98521.73;109223;1272;138539;-58
2022/02/08 00:51:51;;;;;;;11.10;4.70;;;;;;;1.16;86.84;98519.27;109262;1273;22461;-58
2022/02/08 00:54:20;;;;;;;4.70;2.70;;;;;;;1.15;86.72;98525.54;109062;1273;140392;-59
2022/02/08 00:56:48;;;;;;;4.20;2.80;;;;;;;1.14;86.86;98527.17;109113;1274;22527;-59
2022/02/08 00:59:17;;;;;;;4.80;2.80;;;;;;;1.12;86.68;98527.56;109300;1272;23622;-59
2022/02/08 01:01:45;;;;;;;3.70;2.20;;;;;;;1.11;86.65;98535.08;109190;1273;138619;-59
2022/02/08 01:04:13;;;;;;;3.90;2.40;;;;;;;1.10;86.26;98533.86;109312;1273;22526;-58
2022/02/08 01:06:42;;;;;;;5.20;2.90;;;;;;;1.07;86.49;98538.90;109213;1272;138032;-58
2022/02/08 01:09:15;;;;;;;4.20;2.40;;;;;;;1.03;86.09;98538.30;109282;1273;22521;-58
2022/02/08 01:11:44;;;;;;;4.50;2.20;;;;;;;1.02;86.18;98541.05;108875;1274;22515;-58
2022/02/08 01:14:14;;;;;;;3.90;2.00;;;;;;;0.99;86.24;98547.16;109144;1273;138371;-58
2022/02/08 01:16:43;;;;;;;3.40;2.30;;;;;;;0.97;85.82;98553.20;109294;1273;22421;-59
2022/02/08 01:19:12;;;;;;;5.40;2.30;;;;;;;0.98;85.96;98555.05;109159;1273;137624;-58
2022/02/08 01:21:40;;;;;;;4.00;2.60;;;;;;;0.97;85.96;98559.39;109267;1273;23436;-58
2022/02/08 01:24:08;;;;;;;4.90;2.20;;;;;;;0.97;86.05;98560.88;109158;1273;138375;-59
2022/02/08 01:26:45;;;;;;;4.10;2.70;;;;;;;0.96;86.06;98564.96;109150;1273;23229;-59
2022/02/08 01:30:00;;;;;;;5.40;2.50;;;;;;;0.96;86.03;98569.63;109362;1272;22433;-59
2022/02/08 01:40:25;;;;;;;3.70;2.50;;;;;;;0.98;85.58;98577.21;109248;1273;22524;-58
2022/02/08 01:48:14;;;;;;;5.60;2.40;;;;;;;1.00;85.42;98576.86;109178;1273;138754;-58
2022/02/08 01:50:43;;;;;;;3.30;2.00;;;;;;;0.95;85.26;98574.91;109331;1273;22425;-59
2022/02/08 01:53:11;;;;;;;5.70;2.30;;;;;;;0.94;85.20;98582.42;109301;1273;22469;-58
2022/02/08 01:55:40;;;;;;;5.60;2.60;;;;;;;0.91;85.50;98578.58;108977;1274;138414;-58
2022/02/08 01:58:19;;;;;;;3.50;2.50;;;;;;;0.92;85.15;98587.31;109262;1273;22423;-58
2022/02/08 02:00:50;;;;;;;3.50;2.00;;;;;;;0.92;85.11;98587.85;109210;1273;138719;-58
2022/02/08 02:03:20;;;;;;;6.50;2.70;;;;;;;0.92;85.00;98588.10;109249;1273;22453;-58
2022/02/08 02:05:50;;;;;;;4.20;2.40;;;;;;;0.92;85.04;98590.40;109329;1273;23513;-58
2022/02/08 02:08:19;;;;;;;4.50;2.00;;;;;;;0.90;85.11;98594.21;109215;1273;139464;-58
2022/02/08 02:10:49;;;;;;;8.40;2.70;;;;;;;0.89;85.22;98597.40;109128;1274;22614;-58
2022/02/08 02:14:04;;;;;;;3.60;2.30;;;;;;;0.91;85.16;98602.50;109041;1274;138873;-59
2022/02/08 02:16:10;;;;;;;5.80;2.80;;;;;;;0.91;85.29;98603.16;109157;1273;22598;-58
2022/02/08 02:18:48;;;;;;;3.60;2.20;;;;;;;0.91;85.15;98605.67;109220;1273;137800;-59
2022/02/08 02:21:16;;;;;;;5.90;2.40;;;;;;;0.91;85.32;98611.83;109295;1273;22491;-58
2022/02/08 02:23:48;;;;;;;7.30;2.40;;;;;;;0.92;85.44;98607.73;109276;1273;22398;-58
2022/02/08 02:26:22;;;;;;;5.90;2.80;;;;;;;0.90;85.29;98616.70;109100;1274;137523;-59
2022/02/08 02:28:50;;;;;;;5.80;3.50;;;;;;;0.91;85.43;98614.88;109291;1273;22505;-58
2022/02/08 02:31:21;;;;;;;4.00;2.60;;;;;;;0.90;85.20;98621.02;109229;1273;137687;-58
2022/02/08 02:33:51;;;;;;;7.70;3.40;;;;;;;0.90;85.30;98624.16;109316;1273;22485;-59
2022/02/08 02:36:19;;;;;;;8.40;3.40;;;;;;;0.89;85.41;98626.18;109185;1273;137971;-58
2022/02/08 02:38:47;;;;;;;6.10;3.10;;;;;;;0.89;85.27;98633.41;109267;1273;22568;-58
2022/02/08 02:41:17;;;;;;;7.20;4.30;;;;;;;0.87;85.30;98638.88;109357;1273;23388;-59
2022/02/08 02:43:47;;;;;;;9.00;3.20;;;;;;;0.86;85.21;98641.00;109086;1274;139129;-59
2022/02/08 02:46:15;;;;;;;6.50;2.60;;;;;;;0.86;85.44;98640.48;109311;1273;22440;-59
2022/02/08 02:48:44;;;;;;;9.00;2.90;;;;;;;0.87;85.43;98653.42;109187;1273;138088;-58
2022/02/08 02:51:15;;;;;;;5.10;2.50;;;;;;;0.87;85.14;98653.10;109303;1273;22409;-59
2022/02/08 02:53:46;;;;;;;4.80;2.30;;;;;;;0.87;85.20;98656.00;109228;1273;23125;-58
2022/02/08 02:56:16;;;;;;;5.80;2.60;;;;;;;0.88;85.35;98659.66;109116;1273;139451;-59
2022/02/08 02:58:44;;;;;;;4.30;2.20;;;;;;;0.87;84.86;98660.45;109162;1273;22621;-58
2022/02/08 03:01:37;;;;;;;6.60;2.70;;;;;;;0.86;84.90;98662.52;109116;1273;137610;-58
2022/02/08 03:04:27;;;;;;;8.40;2.60;;;;;;;0.86;85.20;98667.24;109311;1273;22544;-58
2022/02/08 03:20:39;;;;;;;5.10;2.70;;;;;;;0.78;85.11;98692.56;109321;1273;22520;-59
2022/02/08 03:23:11;;;;;;;3.00;2.30;;;;;;;0.77;85.24;98699.04;109314;1273;22539;-58
2022/02/08 03:25:39;;;;;;;4.80;2.70;;;;;;;0.76;85.23;98702.43;109213;1273;138216;-58
2022/02/08 03:28:14;;;;;;;6.00;3.00;;;;;;;0.75;84.94;98704.37;109247;1273;22491;-58
2022/02/08 03:30:43;;;;;;;5.60;3.00;;;;;;;0.75;84.97;98709.77;109244;1273;139461;-58
2022/02/08 03:33:11;;;;;;;4.40;2.50;;;;;;;0.75;85.27;98707.59;109304;1273;23509;-58
2022/02/08 03:35:40;;;;;;;4.20;2.40;;;;;;;0.76;84.99;98717.81;109329;1274;23665;-58
2022/02/08 03:38:11;;;;;;;3.10;2.30;;;;;;;0.75;84.97;98720.62;109177;1273;139318;-59
2022/02/08 03:40:45;;;;;;;4.60;2.30;;;;;;;0.76;85.00;98726.89;109300;1273;22504;-59
2022/02/08 03:45:49;;;;;;;3.70;2.20;;;;;;;0.80;84.78;98730.83;109315;1273;23418;-59
2022/02/08 03:48:20;;;;;;;5.90;2.50;;;;;;;0.80;84.45;98735.45;109101;1274;137858;-58
2022/02/08 03:50:54;;;;;;;4.80;2.70;;;;;;;0.82;84.60;98742.46;109383;1273;22416;-58
2022/02/08 03:53:23;;;;;;;4.70;2.70;;;;;;;0.84;84.48;98741.75;109325;1273;23085;-58
2022/02/08 03:55:51;;;;;;;5.40;2.80;;;;;;;0.84;84.27;98749.02;109228;1273;138162;-59
2022/02/08 03:58:19;;;;;;;7.40;2.80;;;;;;;0.84;84.26;98748.92;109344;1273;22515;-59
2022/02/08 04:03:19;;;;;;;4.40;2.60;;;;;;;0.81;84.03;98761.39;109348;1273;23224;-59
2022/02/08 04:05:50;;;;;;;4.60;2.80;;;;;;;0.79;84.18;98773.11;109373;1273;22456;-59
2022/02/08 04:08:18;;;;;;;5.20;3.20;;;;;;;0.74;84.02;98772.27;109248;1273;138435;-59
2022/02/08 04:10:47;;;;;;;7.40;3.30;;;;;;;0.73;83.94;98779.86;109310;1273;22475;-58
2022/02/08 04:14:25;;;;;;;4.70;2.30;;;;;;;0.67;84.29;98775.89;109238;1273;138164;-58
2022/02/08 04:16:25;;;;;;;5.60;2.80;;;;;;;0.69;84.31;98784.14;109279;1273;22464;-59
2022/02/08 04:32:44;;;;;;;6.00;3.10;;;;;;;0.57;85.07;98812.95;109237;1273;137453;-58
2022/02/08 04:35:37;;;;;;;5.00;3.00;;;;;;;0.57;84.85;98823.36;109327;1273;23757;-58
2022/02/08 04:40:51;;;;;;;7.00;2.30;;;;;;;0.56;85.09;98838.66;109337;1273;22481;-59
2022/02/08 04:43:29;;;;;;;4.60;2.50;;;;;;;0.57;85.24;98844.67;109180;1273;138411;-59
2022/02/08 04:46:05;;;;;;;5.30;2.80;;;;;;;0.56;85.16;98842.95;109333;1273;22491;-58
2022/02/08 04:49:07;;;;;;;4.70;2.80;;;;;;;0.56;85.12;98844.60;109254;1273;139352;-59
2022/02/08 04:51:42;;;;;;;9.80;3.20;;;;;;;0.54;85.00;98846.17;109306;1273;23181;-58
2022/02/08 04:54:24;;;;;;;7.70;3.00;;;;;;;0.55;85.07;98852.80;109196;1272;138304;-59
2022/02/08 05:41:27;;;;;;;8.60;3.60;;;;;;;0.45;84.35;98925.66;109361;1273;24761;-58
2022/02/08 05:48:46;;;;;;;11.20;4.10;;;;;;;0.44;84.37;98939.98;109168;1273;138188;-59
2022/02/08 05:51:20;;;;;;;6.60;3.10;;;;;;;0.42;84.31;98944.45;109313;1273;22441;-58
2022/02/08 05:53:48;;;;;;;6.80;3.40;;;;;;;0.42;84.45;98949.30;109326;1273;22524;-59
2022/02/08 05:56:16;;;;;;;6.50;3.90;;;;;;;0.42;84.46;98954.27;109203;1273;138115;-58
2022/02/08 05:58:46;;;;;;;7.50;3.40;;;;;;;0.42;84.15;98956.27;109350;1273;22501;-59
2022/02/08 06:01:15;;;;;;;5.80;3.60;;;;;;;0.41;84.02;98960.89;109184;1273;138356;-64
2022/02/08 06:04:01;;;;;;;5.80;2.90;;;;;;;0.38;83.93;98964.59;109284;1271;22646;-58
2022/02/08 06:06:35;;;;;;;10.60;3.30;;;;;;;0.37;84.19;98965.17;109176;1273;138271;-58
2022/02/08 06:09:03;;;;;;;5.70;3.30;;;;;;;0.37;84.23;98965.30;109305;1273;22422;-59
2022/02/08 06:11:36;;;;;;;5.10;3.30;;;;;;;0.36;84.30;98968.42;109302;1273;25519;-58
2022/02/08 06:14:05;;;;;;;7.90;3.20;;;;;;;0.37;84.14;98970.52;109117;1273;137633;-59
2022/02/08 06:16:33;;;;;;;7.80;3.10;;;;;;;0.38;84.14;98972.55;109273;1274;22426;-59
2022/02/08 06:19:02;;;;;;;7.90;3.60;;;;;;;0.39;84.01;98973.67;109082;1273;139326;-58
2022/02/08 06:21:31;;;;;;;7.80;3.40;;;;;;;0.40;83.99;98976.23;109204;1273;23650;-59
2022/02/08 06:23:59;;;;;;;7.30;4.20;;;;;;;0.39;83.86;98975.23;109283;1273;22447;-59
2022/02/08 06:26:28;;;;;;;14.80;5.10;;;;;;;0.44;84.10;98981.04;109169;1273;137514;-59
2022/02/08 06:29:12;;;;;;;14.40;5.70;;;;;;;0.46;83.88;98986.92;109312;1273;23558;-58
2022/02/08 06:31:40;;;;;;;11.60;5.50;;;;;;;0.48;83.73;98991.50;109140;1273;138303;-57
2022/02/08 06:34:09;;;;;;;10.70;3.60;;;;;;;0.47;83.40;98999.87;109354;1273;23291;-59
2022/02/08 06:36:37;;;;;;;9.20;4.30;;;;;;;0.47;83.36;99000.45;109239;1273;138991;-58
2022/02/08 06:39:05;;;;;;;8.10;4.30;;;;;;;0.47;83.18;99001.64;109265;1273;24942;-59
2022/02/08 06:41:33;;;;;;;7.70;3.20;;;;;;;0.47;83.19;99006.64;109349;1273;22512;-59
2022/02/08 06:44:02;;;;;;;7.50;3.00;;;;;;;0.49;83.23;99013.69;109193;1273;139385;-58
2022/02/08 06:46:33;;;;;;;7.60;3.20;;;;;;;0.50;83.20;99015.35;109350;1273;23223;-58
2022/02/08 06:49:03;;;;;;;5.90;2.90;;;;;;;0.51;83.10;99018.08;109233;1273;139114;-58
2022/02/08 06:51:30;;;;;;;8.80;3.40;;;;;;;0.52;82.96;99020.88;109296;1273;23745;-58
2022/02/08 06:53:59;;;;;;;7.50;3.40;;;;;;;0.52;82.95;99029.24;109311;1273;22468;-58
2022/02/08 06:56:27;;;;;;;7.20;3.00;;;;;;;0.52;82.42;99029.70;109225;1273;137583;-58
2022/02/08 06:59:05;;;;;;;4.40;2.80;;;;;;;0.52;82.49;99034.31;109257;1273;22488;-59
2022/02/08 07:01:35;;;;;;;6.10;2.70;;;;;;;0.55;82.25;99044.30;109145;1273;139328;-59
2022/02/08 07:04:06;;;;;;;5.50;3.10;;;;;;;0.58;82.11;99047.63;109304;1273;23067;-59
2022/02/08 07:06:44;;;;;;;;;;;;;;;0.60;81.88;99047.58;109152;1273;139280;-58
2022/02/08 07:09:15;;;;;;;10.90;3.80;;;;;;;0.60;81.60;99051.67;109340;1273;22442;-58
2022/02/08 07:11:56;;;;;;;8.00;3.90;;;;;;;0.61;81.46;99053.36;109268;1273;22481;-59
2022/02/08 07:14:29;;;;;;;6.80;3.10;;;;;;;0.59;81.11;99054.23;109247;1273;136878;-58
2022/02/08 07:16:57;;;;;;;6.50;2.60;;;;;;;0.60;81.22;99059.25;109302;1273;22571;-59
2022/02/08 07:19:25;;;;;;;5.60;2.90;;;;;;;0.62;80.90;99059.14;109062;1273;213215;-58
2022/02/08 07:22:51;;;;;;;5.10;3.00;;;;;;;0.66;80.79;99067.55;101820;1307;545220;-58
2022/02/08 07:25:19;;;;;;;8.20;3.60;;;;;;;0.64;80.37;99071.35;108151;1284;137669;-59
2022/02/08 07:27:47;;;;;;;8.80;3.40;;;;;;;0.64;80.18;99074.90;108049;1288;22597;-59
2022/02/08 07:30:15;;;;;;;7.70;3.70;;;;;;;0.67;80.19;99084.35;107941;1287;137968;-59
2022/02/08 07:32:46;;;;;;;15.00;7.10;;;;;;;0.68;79.88;99088.48;108102;1287;22520;-58
2022/02/08 07:35:43;;;;;;;9.50;4.30;;;;;;;0.67;79.24;99094.45;108145;1286;23343;-59
2022/02/08 07:38:21;;;;;;;9.20;4.40;;;;;;;0.69;79.13;99098.92;108125;1286;137562;-59
2022/02/08 07:43:18;;;;;;;9.40;4.70;;;;;;;0.74;78.82;99102.33;108083;1284;123859;-64
2022/02/08 07:46:21;;;;;;;10.70;6.00;;;;;;;0.75;78.91;99104.22;107825;1286;23200;-64
2022/02/08 07:48:49;;;;;;;9.10;5.20;;;;;;;0.76;78.40;99111.81;108337;1283;138677;-63
2022/02/08 07:51:19;;;;;;;9.90;5.60;;;;;;;0.77;78.19;99118.92;108426;1282;23516;-64
2022/02/08 07:53:47;;;;;;;15.70;5.00;;;;;;;0.79;77.77;99123.59;108429;1282;22456;-63
2022/02/08 07:56:16;;;;;;;11.70;3.50;;;;;;;0.79;77.19;99127.38;108349;1283;139613;-64
2022/02/08 07:58:44;;;;;;;8.40;3.80;;;;;;;0.80;76.98;99128.20;108448;1282;22492;-63
2022/02/08 08:01:12;;;;;;;6.40;3.60;;;;;;;0.81;76.57;99133.61;108309;1282;136952;-64
2022/02/08 08:03:43;;;;;;;8.40;3.80;;;;;;;0.84;76.81;99136.75;108447;1282;22481;-64
2022/02/08 08:06:11;;;;;;;6.40;3.20;;;;;;;0.88;76.61;99142.14;108328;1283;138547;-63
2022/02/08 08:08:40;;;;;;;8.60;3.90;;;;;;;0.86;75.72;99144.16;108512;1282;22460;-63
2022/02/08 08:11:19;;;;;;;15.70;4.40;;;;;;;0.87;75.51;99152.62;108441;1283;22437;-63
2022/02/08 08:13:53;;;;;;;9.40;3.80;;;;;;;0.87;75.48;99157.50;108388;1283;138210;-64
2022/02/08 08:16:37;;;;;;;7.50;4.10;;;;;;;0.87;75.33;99158.23;108453;1282;22424;-63
2022/02/08 08:19:25;;;;;;;8.20;4.10;;;;;;;0.88;75.00;99160.71;108314;1281;139159;-64
2022/02/08 08:21:53;;;;;;;8.90;3.50;;;;;;;0.89;74.47;99174.95;108391;1282;22433;-64
2022/02/08 08:24:22;;;;;;;6.50;3.60;;;;;;;0.88;74.86;99172.73;108342;1283;137349;-63
2022/02/08 08:26:50;;;;;;;8.20;3.20;;;;;;;0.91;74.81;99176.52;108438;1283;22456;-64
2022/02/08 08:29:18;;;;;;;6.40;2.80;;;;;;;0.94;74.75;99179.09;108416;1282;22548;-64
2022/02/08 08:31:46;;;;;;;6.00;3.00;;;;;;;0.93;73.60;99192.17;108343;1283;136953;-63
2022/02/08 08:34:14;;;;;;;8.80;2.80;;;;;;;0.92;73.79;99193.45;108556;1283;22454;-63
2022/02/08 08:36:43;;;;;;;12.00;3.10;;;;;;;0.92;73.72;99194.15;108365;1283;139075;-63
2022/02/08 08:39:12;;;;;;;7.20;3.30;;;;;;;0.94;73.50;99198.52;108348;1283;22826;-59
2022/02/08 08:41:47;;;;;;;13.90;4.80;;;;;;;0.95;73.49;99199.23;104140;1283;23145;-58
2022/02/08 08:52:03;;;;;;;6.90;4.20;;;;;;;1.06;73.19;99204.23;104320;1283;24369;-58
2022/02/08 08:54:31;;;;;;;8.60;3.80;;;;;;;1.10;72.68;99205.36;108451;1281;138169;-58
2022/02/08 08:56:59;;;;;;;6.30;3.90;;;;;;;1.15;72.21;99210.11;108615;1283;22526;-59
2022/02/08 08:59:27;;;;;;;20.80;6.80;;;;;;;1.16;71.86;99207.11;108589;1282;22438;-58
2022/02/08 09:01:55;;;;;;;16.20;7.30;;;;;;;1.18;71.53;99211.46;108488;1281;136997;-58
2022/02/08 09:04:29;;;;;;;16.30;6.10;;;;;;;1.21;71.40;99219.23;108625;1283;22732;-59
2022/02/08 09:06:57;;;;;;;9.20;3.80;;;;;;;1.25;71.56;99221.56;108417;1282;137518;-58
2022/02/08 09:09:27;;;;;;;7.10;3.60;;;;;;;1.28;70.48;99225.04;108572;1282;22456;-59
2022/02/08 09:15:44;;;;;;;7.10;2.80;;;;;;;1.33;68.98;99236.00;108521;1283;137150;-58
2022/02/08 09:20:41;;;;;;;6.50;2.90;;;;;;;1.33;68.25;99234.44;108480;1282;137237;-57
2022/02/08 09:28:23;;;;;;;12.00;5.20;;;;;;;1.33;67.64;99237.11;108600;1282;22478;-59
2022/02/08 09:30:57;;;;;;;13.40;5.20;;;;;;;1.34;66.88;99240.70;108444;1282;137914;-59
2022/02/08 09:33:25;;;;;;;4.80;1.70;;;;;;;1.35;66.35;99237.91;108478;1283;22490;-59
2022/02/08 09:35:53;;;;;;;2.60;1.30;;;;;;;1.35;64.61;99244.35;108535;1282;22477;-59
2022/02/08 09:38:22;;;;;;;7.70;2.90;;;;;;;1.34;64.28;99245.08;108379;1282;136450;-59
2022/02/08 09:40:50;;;;;;;17.00;4.50;;;;;;;1.32;64.48;99244.88;108558;1282;22475;-62
2022/02/08 09:43:19;;;;;;;16.30;5.50;;;;;;;1.32;64.74;99248.67;108420;1282;138003;-62
2022/02/08 09:45:49;;;;;;;13.50;4.20;;;;;;;1.33;65.24;99243.19;108526;1282;23505;-62
2022/02/08 09:48:21;;;;;;;28.00;7.10;;;;;;;1.35;65.26;99240.17;108423;1282;137137;-62
2022/02/08 09:50:51;;;;;;;7.60;2.80;;;;;;;1.37;65.37;99244.15;108521;1283;23198;-62
2022/02/08 09:53:24;;;;;;;6.50;2.10;;;;;;;1.35;64.60;99238.24;108546;1282;22418;-62
2022/02/08 09:55:52;;;;;;;9.20;2.50;;;;;;;1.36;65.02;99244.02;108381;1283;139449;-62
2022/02/08 09:58:21;;;;;;;4.30;2.10;;;;;;;1.35;64.93;99245.01;108550;1281;23130;-62
2022/02/08 10:00:49;;;;;;;5.80;2.60;;;;;;;1.34;65.00;99242.81;108417;1283;137632;-63
2022/02/08 10:03:17;;;;;;;4.60;2.70;;;;;;;1.34;65.13;99242.31;108530;1283;23746;-66
2022/02/08 10:05:53;;;;;;;8.10;2.50;;;;;;;1.34;65.28;99240.88;108566;1282;22479;-62
2022/02/08 10:08:21;;;;;;;7.80;3.70;;;;;;;1.34;65.13;99238.40;108410;1282;137646;-62
2022/02/08 10:10:50;;;;;;;4.80;2.80;;;;;;;1.34;65.38;99238.94;108544;1282;22594;-62
2022/02/08 10:21:44;;;;;;;6.20;2.20;;;;;;;1.21;65.21;99238.05;108508;1283;22565;-62
2022/02/08 10:24:14;;;;;;;2.60;1.60;;;;;;;1.17;64.97;99238.21;108222;1282;138960;-61
2022/02/08 10:29:38;;;;;;;6.40;3.10;;;;;;;1.15;65.68;99236.49;108530;1283;22463;-62
2022/02/08 10:37:47;;;;;;;4.90;2.20;;;;;;;1.10;64.83;99238.80;108536;1282;137274;-62
2022/02/08 10:40:18;;;;;;;5.20;2.00;;;;;;;1.06;64.76;99234.41;108592;1282;22495;-61
2022/02/08 10:42:54;;;;;;;4.70;2.50;;;;;;;1.06;64.90;99235.20;108468;1282;139107;-61
2022/02/08 10:45:32;;;;;;;6.00;2.80;;;;;;;1.07;65.08;99237.25;108554;1283;23708;-62
2022/02/08 10:48:05;;;;;;;3.20;1.90;;;;;;;1.07;64.88;99234.13;108515;1281;23031;-59
2022/02/08 10:50:47;;;;;;;3.70;2.00;;;;;;;1.10;64.97;99231.90;108436;1283;136628;-60
2022/02/08 10:53:16;;;;;;;4.10;2.10;;;;;;;1.13;64.28;99230.92;108532;1282;22621;-59
2022/02/08 10:55:57;;;;;;;3.70;1.90;;;;;;;1.13;64.31;99230.92;108183;1282;136770;-60
2022/02/08 10:58:34;;;;;;;4.50;2.20;;;;;;;1.17;64.24;99236.02;108502;1283;22474;-60
2022/02/08 11:01:14;;;;;;;3.10;1.60;;;;;;;1.20;64.29;99236.66;108324;1284;137056;-60
2022/02/08 11:03:50;;;;;;;8.00;2.80;;;;;;;1.22;63.86;99234.73;108519;1282;24530;-60
2022/02/08 11:06:32;;;;;;;3.70;1.90;;;;;;;1.24;63.07;99242.94;108342;1283;138777;-60
2022/02/08 11:14:32;;;;;;;4.10;2.00;;;;;;;1.28;63.21;99238.91;108417;1283;137232;-60
2022/02/08 11:20:09;;;;;;;4.90;2.00;;;;;;;1.29;63.10;99239.12;108405;1282;137855;-60
2022/02/08 11:23:05;;;;;;;3.60;1.90;;;;;;;1.30;63.23;99237.12;108331;1286;22409;-60
2022/02/08 11:25:38;;;;;;;9.50;3.40;;;;;;;1.31;63.46;99235.75;108221;1284;137356;-60
2022/02/08 11:28:18;;;;;;;5.70;2.50;;;;;;;1.33;63.71;99231.45;108131;1286;23204;-60
2022/02/08 11:31:24;;;;;;;3.90;2.10;;;;;;;1.33;63.93;99238.64;108253;1284;137455;-60
2022/02/08 11:43:30;;;;;;;4.00;1.80;;;;;;;1.29;63.30;99233.09;103588;1289;24295;-59
2022/02/08 11:48:07;;;;;;;3.40;1.50;;;;;;;1.25;63.68;99246.58;108075;1287;22662;-59
2022/02/08 11:53:25;;;;;;;9.10;2.60;;;;;;;1.22;63.47;99247.59;108445;1283;22488;-59
2022/02/08 11:59:10;;;;;;;4.20;2.10;;;;;;;1.22;63.58;99254.58;108594;1282;23235;-59
2022/02/08 12:04:45;;;;;;;7.70;2.20;;;;;;;1.22;63.41;99257.42;108467;1281;23318;-59
2022/02/08 12:07:07;;;;;;;4.70;1.90;;;;;;;1.22;63.59;99260.31;108465;1282;137302;-59
2022/02/08 12:32:31;;;;;;;2.40;1.30;;;;;;;1.32;62.76;99279.80;109272;1273;137526;-59
2022/02/08 12:56:26;;;;;;;10.40;4.40;;;;;;;1.35;61.41;99306.62;109154;1275;138083;-58
2022/02/08 14:01:40;;;;;;;14.50;3.20;;;;;;;1.48;61.41;99315.52;109240;1274;137580;-58
2022/02/08 14:17:35;;;;;;;5.20;1.90;;;;;;;1.30;62.18;99322.92;108963;1279;22449;-58
2022/02/08 14:25:22;;;;;;;6.20;2.10;;;;;;;1.20;62.24;99329.29;108835;1280;137212;-58
2022/02/08 14:31:06;;;;;;;7.20;3.40;;;;;;;1.13;63.02;99320.73;108963;1277;22504;-58
2022/02/08 14:36:29;;;;;;;5.40;2.20;;;;;;;1.10;62.63;99315.12;108942;1278;22459;-58
2022/02/08 15:07:09;;;;;;;6.20;2.60;;;;;;;1.04;64.57;99331.23;109277;1275;22427;-58
2022/02/08 15:09:40;;;;;;;9.20;3.20;;;;;;;1.03;64.94;99328.04;109107;1275;137959;-58
2022/02/08 15:14:51;;;;;;;6.50;3.30;;;;;;;1.05;64.72;99327.47;109169;1276;137566;-58
2022/02/08 15:17:19;;;;;;;6.10;3.20;;;;;;;1.04;64.34;99332.00;109167;1276;22464;-58
2022/02/08 15:19:50;;;;;;;5.90;3.30;;;;;;;1.02;63.90;99328.79;109092;1275;138962;-58
2022/02/08 15:22:19;;;;;;;10.00;3.80;;;;;;;0.99;64.00;99332.87;109281;1275;22302;-58
2022/02/08 15:24:47;;;;;;;6.50;3.30;;;;;;;0.97;64.24;99328.45;109091;1276;23194;-58
2022/02/08 15:27:16;;;;;;;8.70;3.60;;;;;;;0.97;63.95;99336.33;109155;1274;137606;-58
2022/02/08 15:29:44;;;;;;;7.50;3.40;;;;;;;0.97;64.15;99342.94;109343;1274;22554;-58
2022/02/08 15:32:15;;;;;;;7.60;3.60;;;;;;;0.97;64.20;99341.23;109230;1275;136894;-58
2022/02/08 15:34:43;;;;;;;8.20;3.60;;;;;;;0.98;64.44;99342.85;109251;1275;22457;-58
2022/02/08 15:37:11;;;;;;;9.40;3.70;;;;;;;0.99;64.79;99343.77;109201;1276;22489;-57
2022/02/08 15:39:40;;;;;;;7.50;3.50;;;;;;;1.00;64.59;99341.88;109261;1274;137084;-57
2022/02/08 15:42:08;;;;;;;8.20;3.50;;;;;;;1.00;64.85;99339.40;109320;1274;23268;-57
2022/02/08 15:44:38;;;;;;;10.90;4.70;;;;;;;1.00;64.91;99339.52;109267;1274;138403;-58
2022/02/08 15:47:11;;;;;;;7.40;3.80;;;;;;;1.01;64.82;99342.49;109342;1274;22476;-58
2022/02/08 15:49:45;;;;;;;7.50;3.50;;;;;;;1.00;64.58;99343.03;109284;1274;139605;-58
2022/02/08 15:52:27;;;;;;;10.70;6.40;;;;;;;0.99;65.16;99342.73;109306;1274;22464;-58
2022/02/08 15:54:57;;;;;;;11.20;4.90;;;;;;;0.97;65.22;99338.85;109310;1274;22452;-58
2022/02/08 15:57:59;;;;;;;10.80;4.70;;;;;;;1.01;65.13;99342.55;106118;1274;139610;-57
2022/02/08 16:08:44;;;;;;;;;;;;;;;1.08;65.83;99346.92;109257;1274;138144;-58
2022/02/08 16:19:16;;;;;;;18.30;8.40;;;;;;;1.16;66.22;99338.68;109369;1274;22409;-58
2022/02/08 16:22:53;;;;;;;19.10;8.60;;;;;;;1.16;66.34;99333.89;109179;1274;137465;-58
2022/02/08 16:54:41;;;;;;;49.30;19.10;;;;;;;1.06;66.48;99334.82;104734;1277;22720;-59
2022/02/08 16:59:45;;;;;;;57.50;24.00;;;;;;;1.04;66.67;99347.52;104915;1277;22711;-59
2022/02/08 17:02:19;;;;;;;49.00;21.00;;;;;;;1.02;66.89;99343.52;109094;1275;137932;-60
2022/02/08 17:04:47;;;;;;;27.70;13.50;;;;;;;1.04;67.08;99345.05;109276;1274;22464;-60
2022/02/08 17:07:38;;;;;;;24.30;12.60;;;;;;;1.06;67.25;99343.33;109269;1277;22456;-61
2022/02/08 17:10:16;;;;;;;29.70;13.80;;;;;;;1.09;67.52;99345.23;109176;1277;139094;-60
2022/02/08 17:13:34;;;;;;;26.70;13.70;;;;;;;1.11;67.36;99349.79;109314;1276;22448;-60
2022/02/08 17:45:59;;;;;;;35.00;20.60;;;;;;;1.24;67.99;99346.04;104812;1277;139456;-57
2022/02/08 17:48:30;;;;;;;38.70;20.50;;;;;;;1.23;68.03;99344.45;104934;1277;25375;-57
2022/02/08 17:50:59;;;;;;;41.20;22.50;;;;;;;1.22;68.18;99345.02;104891;1278;138321;-57
2022/02/08 17:53:27;;;;;;;28.90;16.10;;;;;;;1.20;68.30;99346.34;104908;1277;22595;-56
2022/02/08 17:55:56;;;;;;;40.90;19.00;;;;;;;1.20;68.39;99354.14;104846;1277;137545;-57
2022/02/08 17:58:24;;;;;;;35.40;19.50;;;;;;;1.19;68.63;99353.52;105039;1278;25310;-57
2022/02/08 18:00:53;;;;;;;44.30;23.30;;;;;;;1.15;68.61;99348.17;104950;1278;22565;-58
2022/02/08 18:03:21;;;;;;;35.20;18.30;;;;;;;1.14;68.53;99353.11;109180;1275;137277;-57
2022/02/08 18:05:49;;;;;;;43.10;20.70;;;;;;;1.13;68.69;99354.88;109262;1274;22662;-58
2022/02/08 18:08:20;;;;;;;36.30;18.40;;;;;;;1.13;69.00;99349.46;109109;1277;140329;-58
2022/02/08 18:10:55;;;;;;;37.20;19.30;;;;;;;1.15;68.98;99346.75;109315;1275;23101;-58
2022/02/08 18:13:24;;;;;;;22.50;11.40;;;;;;;1.16;69.26;99344.80;109313;1275;22558;-57
2022/02/08 18:16:07;;;;;;;23.70;12.30;;;;;;;1.17;69.45;99337.77;109130;1276;138644;-58
2022/02/08 18:18:41;;;;;;;22.00;10.40;;;;;;;1.19;69.39;99332.38;109310;1274;22439;-58
2022/02/08 18:21:27;;;;;;;18.10;9.40;;;;;;;1.20;69.71;99333.09;109168;1274;139105;-58
2022/02/08 18:27:36;;;;;;;30.40;13.60;;;;;;;1.23;69.58;99330.79;109240;1274;137490;-58
2022/02/08 19:08:25;;;;;;;25.70;10.80;;;;;;;1.20;70.94;99302.95;109308;1274;139914;-61
2022/02/08 19:19:16;;;;;;;49.40;19.70;;;;;;;1.24;71.08;99297.67;109279;1274;23451;-61
2022/02/08 19:21:45;;;;;;;46.50;18.90;;;;;;;1.24;71.22;99293.98;109153;1275;138303;-61
2022/02/08 19:24:19;;;;;;;37.10;16.80;;;;;;;1.25;71.36;99287.79;109248;1275;24988;-62
2022/02/08 19:26:51;;;;;;;37.20;15.20;;;;;;;1.25;71.42;99289.73;109213;1274;137311;-62
2022/02/08 19:29:20;;;;;;;33.60;13.40;;;;;;;1.25;71.54;99288.61;109239;1274;23196;-62
2022/02/08 19:31:48;;;;;;;28.50;12.60;;;;;;;1.25;71.57;99283.52;109302;1274;23134;-62